Time;durP1;ratioP1;P1;durP2;ratioP2;P2;SDS_P1;SDS_P2;PMS_P1;PMS_P2;Temp;Humidity;BMP_temperature;BMP_pressure;BME280_temperature;BME280_humidity;BME280_pressure;Samples;Min_cycle;Max_cycle;Signal;HPM_P1;HPM_P2
2021/08/14 00:00:46;;;;;;;0.00;0.00;;;15.20;99.90;;;;;;5116714;28;20040;-89
2021/08/14 00:03:13;;;;;;;0.00;0.00;;;15.30;99.90;;;;;;5151157;28;20066;-89
2021/08/14 00:05:40;;;;;;;0.00;0.00;;;15.20;99.90;;;;;;5117324;28;20031;-88
2021/08/14 00:08:06;;;;;;;0.00;0.00;;;15.20;99.90;;;;;;5133747;28;20027;-90
2021/08/14 00:10:33;;;;;;;0.00;0.00;;;15.20;99.90;;;;;;5116827;28;20035;-89
2021/08/14 00:13:00;;;;;;;0.00;0.00;;;15.20;99.90;;;;;;5116581;28;20086;-89
2021/08/14 00:15:27;;;;;;;0.00;0.00;;;15.20;99.90;;;;;;5133940;28;20472;-89
2021/08/14 00:17:54;;;;;;;0.00;0.00;;;15.10;99.90;;;;;;5150190;28;20147;-89
2021/08/14 00:20:21;;;;;;;0.00;0.00;;;15.20;99.90;;;;;;5120074;28;20067;-89
2021/08/14 00:22:48;;;;;;;0.03;0.03;;;15.10;99.90;;;;;;5121087;28;20044;-89
2021/08/14 00:25:15;;;;;;;0.00;0.00;;;15.10;99.90;;;;;;5113144;28;20036;-89
2021/08/14 00:27:42;;;;;;;0.47;0.30;;;15.10;99.90;;;;;;5113277;28;20445;-89
2021/08/14 00:30:09;;;;;;;0.00;0.00;;;15.10;99.90;;;;;;5112957;28;20046;-88
2021/08/14 00:32:36;;;;;;;0.30;0.20;;;15.10;99.90;;;;;;5146713;28;20032;-88
2021/08/14 00:35:03;;;;;;;0.10;0.10;;;15.00;99.90;;;;;;5111485;28;20044;-88
2021/08/14 00:37:30;;;;;;;0.05;0.00;;;15.00;99.90;;;;;;5129317;28;20396;-88
2021/08/14 00:39:57;;;;;;;0.00;0.00;;;15.10;99.90;;;;;;5112507;28;20031;-88
2021/08/14 00:42:24;;;;;;;0.00;0.00;;;15.00;99.90;;;;;;5112722;28;20047;-89
2021/08/14 00:44:51;;;;;;;0.10;0.10;;;15.00;99.90;;;;;;5112533;28;20040;-89
2021/08/14 00:47:24;;;;;;;0.00;0.00;;;15.00;99.90;;;;;;5146521;28;20032;-90
2021/08/14 00:49:51;;;;;;;0.22;0.20;;;15.00;99.90;;;;;;5129362;28;20465;-88
2021/08/14 00:52:18;;;;;;;0.00;0.00;;;14.90;99.90;;;;;;5146324;28;20047;-88
2021/08/14 00:54:45;;;;;;;0.03;0.03;;;14.90;99.90;;;;;;5129430;28;20044;-88
2021/08/14 00:57:13;;;;;;;0.10;0.10;;;14.80;99.90;;;;;;5112210;28;20119;-88
2021/08/14 00:59:40;;;;;;;0.00;0.00;;;14.90;99.90;;;;;;5129609;28;20040;-89
2021/08/14 01:02:07;;;;;;;0.00;0.00;;;14.90;99.90;;;;;;5130156;28;20044;-88
2021/08/14 01:04:37;;;;;;;0.00;0.00;;;14.90;99.90;;;;;;5146004;28;20028;-88
2021/08/14 01:07:04;;;;;;;0.05;0.05;;;14.90;99.90;;;;;;5145781;28;20525;-88
2021/08/14 01:09:31;;;;;;;0.00;0.00;;;14.90;99.90;;;;;;5146510;28;20085;-88
2021/08/14 01:11:59;;;;;;;0.00;0.00;;;14.90;99.90;;;;;;5111435;28;20059;-88
2021/08/14 01:14:26;;;;;;;0.03;0.03;;;14.90;99.90;;;;;;5129318;28;20051;-89
2021/08/14 01:16:53;;;;;;;0.10;0.10;;;14.90;99.90;;;;;;5111926;28;20071;-85
2021/08/14 01:19:21;;;;;;;0.10;0.10;;;14.90;99.90;;;;;;5145608;28;20097;-87
2021/08/14 01:21:53;;;;;;;0.10;0.10;;;14.90;99.90;;;;;;5128588;28;20492;-88
2021/08/14 01:24:21;;;;;;;0.00;0.00;;;14.90;99.90;;;;;;5145620;28;20398;-88
2021/08/14 01:26:49;;;;;;;0.03;0.03;;;14.80;99.90;;;;;;5128993;28;20060;-88
2021/08/14 01:29:16;;;;;;;0.00;0.00;;;14.90;99.90;;;;;;5128692;28;20577;-88
2021/08/14 01:31:43;;;;;;;0.00;0.00;;;14.80;99.90;;;;;;5146073;28;20078;-88
2021/08/14 01:34:11;;;;;;;0.00;0.00;;;14.80;99.90;;;;;;5145326;28;20043;-88
2021/08/14 01:36:38;;;;;;;0.22;0.00;;;14.80;99.90;;;;;;5128651;28;20058;-89
2021/08/14 01:39:05;;;;;;;0.00;0.00;;;14.90;99.90;;;;;;5144954;28;20040;-87
2021/08/14 01:41:32;;;;;;;0.00;0.00;;;14.80;99.90;;;;;;5128438;28;20036;-88
2021/08/14 01:44:04;;;;;;;0.00;0.00;;;14.90;99.90;;;;;;5111453;28;20036;-87
2021/08/14 01:46:34;;;;;;;0.00;0.00;;;14.90;99.90;;;;;;5129409;28;20472;-88
2021/08/14 01:49:03;;;;;;;0.10;0.10;;;14.90;99.90;;;;;;5128118;28;20059;-88
2021/08/14 01:51:30;;;;;;;0.00;0.00;;;14.90;99.90;;;;;;5128527;28;20035;-88
2021/08/14 01:54:00;;;;;;;0.00;0.00;;;14.90;99.90;;;;;;5128276;28;20040;-88
2021/08/14 01:56:28;;;;;;;0.00;0.00;;;15.00;99.90;;;;;;5128407;28;20477;-88
2021/08/14 01:58:55;;;;;;;0.00;0.00;;;14.90;99.90;;;;;;5129422;28;20070;-88
2021/08/14 02:01:23;;;;;;;0.00;0.00;;;15.00;99.90;;;;;;5144844;28;20107;-88
2021/08/14 02:03:50;;;;;;;0.13;0.10;;;15.00;99.90;;;;;;5128569;28;20043;-88
2021/08/14 02:06:22;;;;;;;0.00;0.00;;;15.00;99.90;;;;;;5144679;28;20036;-88
2021/08/14 02:08:49;;;;;;;0.00;0.00;;;15.00;99.90;;;;;;5128013;28;20032;-88
2021/08/14 02:11:18;;;;;;;0.00;0.00;;;15.10;99.90;;;;;;5127496;28;20048;-87
2021/08/14 02:13:47;;;;;;;0.20;0.20;;;15.10;99.90;;;;;;5144849;28;20044;-87
2021/08/14 02:16:15;;;;;;;0.00;0.00;;;15.10;99.90;;;;;;5127503;28;20059;-88
2021/08/14 02:18:42;;;;;;;0.00;0.00;;;15.10;99.90;;;;;;5128011;28;20088;-87
2021/08/14 02:21:10;;;;;;;0.17;0.17;;;15.10;99.90;;;;;;5144769;28;20377;-88
2021/08/14 02:23:38;;;;;;;0.00;0.00;;;15.10;99.90;;;;;;5127992;28;20032;-88
2021/08/14 02:26:06;;;;;;;0.10;0.10;;;15.10;99.90;;;;;;5127605;28;20040;-87
2021/08/14 02:28:33;;;;;;;0.10;0.10;;;15.00;99.90;;;;;;5128164;28;20086;-88
2021/08/14 02:31:01;;;;;;;0.10;0.10;;;15.10;99.90;;;;;;5127681;28;20472;-88
2021/08/14 02:33:28;;;;;;;0.00;0.00;;;15.00;99.90;;;;;;5110911;28;20403;-88
2021/08/14 02:35:55;;;;;;;0.03;0.03;;;15.00;99.90;;;;;;5128248;28;20040;-88
2021/08/14 02:38:22;;;;;;;0.00;0.00;;;15.00;99.90;;;;;;5144766;28;20072;-88
2021/08/14 02:40:50;;;;;;;0.00;0.00;;;15.00;99.90;;;;;;5144921;28;20408;-88
2021/08/14 02:43:17;;;;;;;0.08;0.08;;;15.00;99.90;;;;;;5127530;28;20044;-88
2021/08/14 02:45:45;;;;;;;0.00;0.00;;;15.00;99.90;;;;;;5127961;28;20047;-89
2021/08/14 02:48:13;;;;;;;0.20;0.20;;;15.00;99.90;;;;;;5127479;28;20040;-88
2021/08/14 02:50:44;;;;;;;0.00;0.00;;;15.00;99.90;;;;;;5144519;28;20586;-89
2021/08/14 02:53:12;;;;;;;0.00;0.00;;;15.00;99.90;;;;;;5127938;28;20480;-88
2021/08/14 02:55:41;;;;;;;0.00;0.00;;;15.00;99.90;;;;;;5127669;28;20484;-89
2021/08/14 02:58:08;;;;;;;0.30;0.20;;;15.00;99.90;;;;;;5128820;28;20077;-87
2021/08/14 03:00:37;;;;;;;0.35;0.20;;;15.00;99.90;;;;;;5148531;28;20071;-89
2021/08/14 03:03:05;;;;;;;0.25;0.17;;;15.00;99.90;;;;;;5131562;28;20431;-89
2021/08/14 03:05:31;;;;;;;0.17;0.10;;;15.00;99.90;;;;;;5148339;28;20081;-89
2021/08/14 03:07:58;;;;;;;0.00;0.00;;;14.90;99.90;;;;;;5131445;28;20040;-88
2021/08/14 03:10:26;;;;;;;0.15;0.10;;;15.00;99.90;;;;;;5148087;28;20036;-87
2021/08/14 03:12:52;;;;;;;0.00;0.00;;;15.00;99.90;;;;;;5114263;28;20048;-88
2021/08/14 03:15:19;;;;;;;0.00;0.00;;;14.90;99.90;;;;;;5147825;28;20046;-88
2021/08/14 03:17:46;;;;;;;0.10;0.10;;;14.90;99.90;;;;;;5148138;28;20036;-88
2021/08/14 03:20:13;;;;;;;0.00;0.00;;;14.90;99.90;;;;;;5148057;28;20036;-88
2021/08/14 03:22:40;;;;;;;0.20;0.13;;;14.90;99.90;;;;;;5114241;28;20058;-89
2021/08/14 03:25:08;;;;;;;0.00;0.00;;;14.90;99.90;;;;;;5148364;28;20041;-89
2021/08/14 03:27:34;;;;;;;0.00;0.00;;;14.90;99.90;;;;;;5113899;28;20522;-89
2021/08/14 03:30:01;;;;;;;0.00;0.00;;;14.90;99.90;;;;;;5148149;28;20043;-88
2021/08/14 03:32:28;;;;;;;0.20;0.20;;;14.90;99.90;;;;;;5147689;28;20408;-89
2021/08/14 03:34:55;;;;;;;0.00;0.00;;;14.90;99.90;;;;;;5113814;28;20044;-88
2021/08/14 03:37:21;;;;;;;0.00;0.00;;;14.90;99.90;;;;;;5130633;28;20059;-88
2021/08/14 03:39:48;;;;;;;0.00;0.00;;;14.90;99.90;;;;;;5148068;28;20161;-89
2021/08/14 03:42:15;;;;;;;0.10;0.10;;;14.90;99.90;;;;;;5114240;28;20036;-88
2021/08/14 03:44:42;;;;;;;0.00;0.00;;;14.90;99.90;;;;;;5148078;28;20036;-89
2021/08/14 03:47:09;;;;;;;0.00;0.00;;;14.90;99.90;;;;;;5132282;28;20084;-88
2021/08/14 03:49:35;;;;;;;0.03;0.03;;;14.90;99.90;;;;;;5148055;28;20044;-88
2021/08/14 03:52:02;;;;;;;0.00;0.00;;;14.90;99.90;;;;;;5147913;28;20032;-89
2021/08/14 03:54:29;;;;;;;0.00;0.00;;;14.90;99.90;;;;;;5130146;28;20115;-88
2021/08/14 03:56:56;;;;;;;0.45;0.10;;;14.90;99.90;;;;;;5114128;28;20040;-89
2021/08/14 03:59:23;;;;;;;0.00;0.00;;;14.90;99.90;;;;;;5147213;28;20028;-88
2021/08/14 04:01:49;;;;;;;0.10;0.10;;;14.90;99.90;;;;;;5147567;28;20498;-89
2021/08/14 04:04:16;;;;;;;0.00;0.00;;;14.90;99.90;;;;;;5129938;28;20040;-88
2021/08/14 04:06:43;;;;;;;0.00;0.00;;;14.90;99.90;;;;;;5113364;28;20111;-88
2021/08/14 04:09:10;;;;;;;0.00;0.00;;;14.90;99.90;;;;;;5113027;28;20062;-89
2021/08/14 04:11:42;;;;;;;0.10;0.00;;;14.90;99.90;;;;;;5112529;28;20044;-88
2021/08/14 04:14:09;;;;;;;0.10;0.10;;;14.90;99.90;;;;;;5130100;28;20040;-89
2021/08/14 04:16:37;;;;;;;0.00;0.00;;;14.80;99.90;;;;;;5129039;28;20040;-88
2021/08/14 04:19:04;;;;;;;0.00;0.00;;;14.80;99.90;;;;;;5146844;28;20033;-88
2021/08/14 04:21:31;;;;;;;0.10;0.10;;;14.90;99.90;;;;;;5145940;28;20050;-88
2021/08/14 04:23:58;;;;;;;0.00;0.00;;;14.90;99.90;;;;;;5146629;28;20040;-86
2021/08/14 04:26:28;;;;;;;0.00;0.00;;;14.80;99.90;;;;;;5129521;28;20061;-88
2021/08/14 04:28:55;;;;;;;0.00;0.00;;;14.80;99.90;;;;;;5113843;28;20040;-89
2021/08/14 04:31:22;;;;;;;0.00;0.00;;;14.80;99.90;;;;;;5112767;28;20036;-88
2021/08/14 04:33:50;;;;;;;0.25;0.15;;;14.90;99.90;;;;;;5113059;28;20495;-89
2021/08/14 04:36:17;;;;;;;0.00;0.00;;;14.90;99.90;;;;;;5147047;28;20408;-89
2021/08/14 04:38:43;;;;;;;0.00;0.00;;;14.90;99.90;;;;;;5146535;28;20032;-89
2021/08/14 04:41:10;;;;;;;0.13;0.10;;;14.90;99.90;;;;;;5129997;28;20047;-89
2021/08/14 04:43:38;;;;;;;0.05;0.05;;;14.90;99.90;;;;;;5146150;28;20039;-88
2021/08/14 04:46:05;;;;;;;0.00;0.00;;;14.90;99.90;;;;;;5146603;28;20039;-88
2021/08/14 04:48:36;;;;;;;0.10;0.10;;;14.90;99.90;;;;;;5112867;28;20565;-89
2021/08/14 04:51:03;;;;;;;0.05;0.05;;;14.90;99.90;;;;;;5112770;28;20060;-88
2021/08/14 04:53:30;;;;;;;0.00;0.00;;;15.00;99.90;;;;;;5129097;28;20044;-88
2021/08/14 04:55:56;;;;;;;0.00;0.00;;;14.90;99.90;;;;;;5112167;28;20123;-88
2021/08/14 04:58:23;;;;;;;0.05;0.05;;;15.00;99.90;;;;;;5128712;28;20040;-87
2021/08/14 05:00:50;;;;;;;0.00;0.00;;;15.00;99.90;;;;;;5112842;28;20115;-88
2021/08/14 05:03:17;;;;;;;0.00;0.00;;;15.00;99.90;;;;;;5146236;28;20032;-88
2021/08/14 05:05:44;;;;;;;0.00;0.00;;;15.00;99.90;;;;;;5145849;28;20468;-88
2021/08/14 05:08:11;;;;;;;0.00;0.00;;;15.10;99.90;;;;;;5145948;28;20032;-88
2021/08/14 05:10:38;;;;;;;0.00;0.00;;;15.10;99.90;;;;;;5128571;28;20046;-87
2021/08/14 05:13:05;;;;;;;0.00;0.00;;;15.10;99.90;;;;;;5142533;28;20047;-88
2021/08/14 05:15:32;;;;;;;0.00;0.00;;;15.10;99.90;;;;;;5115757;28;20093;-88
2021/08/14 05:17:59;;;;;;;0.10;0.10;;;15.20;99.90;;;;;;5128786;28;20040;-87
2021/08/14 05:20:26;;;;;;;0.00;0.00;;;15.20;99.90;;;;;;5111233;28;20036;-89
2021/08/14 05:22:52;;;;;;;0.00;0.00;;;15.20;99.90;;;;;;5130015;28;20089;-88
2021/08/14 05:25:20;;;;;;;0.00;0.00;;;15.30;99.90;;;;;;5115633;28;20040;-88
2021/08/14 05:27:47;;;;;;;0.15;0.15;;;15.30;99.90;;;;;;5131910;28;20139;-89
2021/08/14 05:30:14;;;;;;;0.00;0.00;;;15.30;99.90;;;;;;5149306;28;20034;-88
2021/08/14 05:32:41;;;;;;;0.00;0.00;;;15.30;99.90;;;;;;5131927;28;20035;-88
2021/08/14 05:35:08;;;;;;;0.00;0.00;;;15.40;99.90;;;;;;5132086;28;20035;-88
2021/08/14 05:37:35;;;;;;;0.00;0.00;;;15.40;99.90;;;;;;5128146;28;20078;-88
2021/08/14 05:40:02;;;;;;;0.00;0.00;;;15.40;99.90;;;;;;5135805;28;20024;-88
2021/08/14 05:42:29;;;;;;;0.10;0.00;;;15.30;99.90;;;;;;5148951;28;20044;-87
2021/08/14 05:44:57;;;;;;;0.00;0.00;;;15.40;99.90;;;;;;5132125;28;20031;-87
2021/08/14 05:47:24;;;;;;;0.00;0.00;;;15.30;99.90;;;;;;5148809;28;20043;-88
2021/08/14 05:49:51;;;;;;;0.00;0.00;;;15.40;99.90;;;;;;5114990;28;20035;-88
2021/08/14 05:52:18;;;;;;;0.00;0.00;;;15.40;99.90;;;;;;5148801;28;20032;-89
2021/08/14 05:54:45;;;;;;;0.00;0.00;;;15.50;99.90;;;;;;5131543;28;20058;-88
2021/08/14 05:57:12;;;;;;;0.13;0.08;;;15.60;99.90;;;;;;5111545;28;20032;-88
2021/08/14 05:59:40;;;;;;;0.00;0.00;;;15.70;99.90;;;;;;5128057;28;20491;-88
2021/08/14 06:02:06;;;;;;;0.00;0.00;;;15.70;99.90;;;;;;5115161;28;20111;-89
2021/08/14 06:04:33;;;;;;;0.00;0.00;;;15.90;99.90;;;;;;5115080;28;20065;-89
2021/08/14 06:07:00;;;;;;;0.15;0.10;;;16.00;99.90;;;;;;5131699;28;20040;-88
2021/08/14 06:09:27;;;;;;;0.10;0.10;;;16.10;99.90;;;;;;5128542;28;20086;-89
2021/08/14 06:11:54;;;;;;;0.00;0.00;;;16.20;99.90;;;;;;5142311;28;20053;-89
2021/08/14 06:14:21;;;;;;;0.00;0.00;;;16.30;99.90;;;;;;5148882;28;20031;-88
2021/08/14 06:16:47;;;;;;;0.00;0.00;;;16.20;99.90;;;;;;5131334;28;20043;-89
2021/08/14 06:19:14;;;;;;;0.00;0.00;;;16.30;99.90;;;;;;5114596;28;20077;-90
2021/08/14 06:21:41;;;;;;;0.00;0.00;;;16.30;99.90;;;;;;5131389;28;20054;-91
2021/08/14 06:24:08;;;;;;;0.05;0.05;;;16.30;99.90;;;;;;5132022;28;20480;-88
2021/08/14 06:26:35;;;;;;;0.00;0.00;;;16.40;99.90;;;;;;5114373;28;20067;-89
2021/08/14 06:29:02;;;;;;;0.00;0.00;;;16.40;99.90;;;;;;5131162;28;20078;-86
2021/08/14 06:31:29;;;;;;;0.00;0.00;;;16.40;99.90;;;;;;5131419;28;20399;-91
2021/08/14 06:33:56;;;;;;;0.00;0.00;;;16.50;99.90;;;;;;5150977;28;20035;-89
2021/08/14 06:36:24;;;;;;;0.00;0.00;;;16.50;99.90;;;;;;5119425;28;20089;-90
2021/08/14 06:38:50;;;;;;;0.10;0.10;;;16.60;99.90;;;;;;5118749;28;20035;-92
2021/08/14 06:41:17;;;;;;;0.00;0.00;;;16.70;99.90;;;;;;5135857;28;20039;-89
2021/08/14 06:43:44;;;;;;;0.20;0.20;;;16.80;99.90;;;;;;5118447;28;20035;-89
2021/08/14 06:46:11;;;;;;;0.00;0.00;;;16.80;99.90;;;;;;5152732;28;20031;-92
2021/08/14 06:48:37;;;;;;;0.00;0.00;;;16.80;99.90;;;;;;5118429;28;20043;-89
2021/08/14 06:51:04;;;;;;;0.00;0.00;;;16.90;99.90;;;;;;5118881;28;20048;-91
2021/08/14 06:53:31;;;;;;;0.57;0.20;;;16.90;99.90;;;;;;5118899;28;20036;-92
2021/08/14 06:55:59;;;;;;;0.00;0.00;;;17.00;99.90;;;;;;5135011;28;20415;-89
2021/08/14 06:58:26;;;;;;;0.00;0.00;;;17.10;99.90;;;;;;5118026;28;20031;-88
2021/08/14 07:00:53;;;;;;;0.00;0.00;;;17.20;99.90;;;;;;5117910;28;20081;-91
2021/08/14 07:03:20;;;;;;;0.10;0.10;;;17.30;99.90;;;;;;5118417;28;20152;-89
2021/08/14 07:05:47;;;;;;;0.15;0.08;;;17.40;99.90;;;;;;5135439;28;20036;-90
2021/08/14 07:08:14;;;;;;;0.17;0.17;;;17.50;99.90;;;;;;5115009;28;20077;-93
2021/08/14 07:10:41;;;;;;;0.25;0.15;;;17.70;99.90;;;;;;5149389;28;20039;-85
2021/08/14 07:13:07;;;;;;;0.08;0.08;;;17.70;99.90;;;;;;5135125;28;20145;-92
2021/08/14 07:15:34;;;;;;;0.00;0.00;;;17.80;99.90;;;;;;5134694;28;20472;-89
2021/08/14 07:18:01;;;;;;;0.00;0.00;;;17.90;99.90;;;;;;5117665;28;20088;-92
2021/08/14 07:20:28;;;;;;;0.00;0.00;;;17.90;99.90;;;;;;5135391;28;20293;-91
2021/08/14 07:22:55;;;;;;;0.05;0.05;;;18.00;99.90;;;;;;5101403;28;20063;-90
2021/08/14 07:25:23;;;;;;;0.00;0.00;;;18.00;99.90;;;;;;5117942;28;20043;-88
2021/08/14 07:27:51;;;;;;;0.73;0.20;;;18.00;99.90;;;;;;5133551;28;20377;-83
2021/08/14 07:30:19;;;;;;;0.00;0.00;;;18.10;99.90;;;;;;5118039;28;20122;-85
2021/08/14 07:32:46;;;;;;;0.00;0.00;;;18.20;99.90;;;;;;5149565;28;20031;-84
2021/08/14 07:35:13;;;;;;;0.85;0.60;;;18.30;99.90;;;;;;5113446;28;20047;-84
2021/08/14 07:37:50;;;;;;;0.10;0.00;;;18.40;99.90;;;;;;5133038;28;20067;-84
2021/08/14 07:40:23;;;;;;;0.10;0.08;;;18.50;99.90;;;;;;5150144;28;20085;-84
2021/08/14 07:42:50;;;;;;;0.45;0.20;;;18.60;99.90;;;;;;5149477;28;20046;-82
2021/08/14 07:45:17;;;;;;;0.10;0.10;;;18.70;99.90;;;;;;5150712;28;20032;-84
2021/08/14 07:47:47;;;;;;;0.65;0.20;;;18.70;99.90;;;;;;5132658;28;20048;-83
2021/08/14 07:50:26;;;;;;;0.50;0.32;;;18.70;99.90;;;;;;5149935;28;20034;-84
2021/08/14 07:52:55;;;;;;;0.10;0.10;;;18.80;99.90;;;;;;5149809;28;20031;-87
2021/08/14 07:55:22;;;;;;;0.15;0.15;;;18.80;99.90;;;;;;5124606;28;20497;-88
2021/08/14 07:57:49;;;;;;;0.13;0.13;;;18.90;99.90;;;;;;5132685;28;20101;-87
2021/08/14 08:00:19;;;;;;;0.10;0.10;;;19.00;99.90;;;;;;5115464;28;20028;-88
2021/08/14 08:02:46;;;;;;;0.10;0.10;;;19.20;99.90;;;;;;5129708;28;20400;-88
2021/08/14 08:05:13;;;;;;;0.35;0.25;;;19.40;99.90;;;;;;5130794;28;20036;-89
2021/08/14 08:07:40;;;;;;;0.10;0.10;;;19.40;99.90;;;;;;5130390;28;20119;-91
2021/08/14 08:10:08;;;;;;;0.00;0.00;;;19.60;99.90;;;;;;5113482;28;20039;-88
2021/08/14 08:12:36;;;;;;;0.38;0.28;;;19.60;99.90;;;;;;5130699;28;20051;-88
2021/08/14 08:15:07;;;;;;;0.05;0.00;;;19.70;99.90;;;;;;5130232;28;20056;-88
2021/08/14 08:17:34;;;;;;;0.10;0.10;;;19.70;99.90;;;;;;5130759;28;20040;-87
2021/08/14 08:20:03;;;;;;;0.10;0.10;;;19.70;99.90;;;;;;5130037;28;20056;-87
2021/08/14 08:22:29;;;;;;;0.20;0.20;;;19.80;99.90;;;;;;5130133;28;20067;-87
2021/08/14 08:24:56;;;;;;;0.25;0.15;;;19.90;99.90;;;;;;5124000;28;20518;-87
2021/08/14 08:27:23;;;;;;;0.22;0.20;;;19.90;99.90;;;;;;5133271;28;20047;-87
2021/08/14 08:29:51;;;;;;;0.10;0.10;;;20.00;99.90;;;;;;5116095;28;20047;-87
2021/08/14 08:32:18;;;;;;;0.20;0.20;;;20.00;99.90;;;;;;5132704;28;20412;-88
2021/08/14 08:34:45;;;;;;;0.50;0.40;;;20.10;99.90;;;;;;5149847;28;20099;-87
2021/08/14 08:37:11;;;;;;;0.00;0.00;;;20.10;99.90;;;;;;5115982;28;20039;-87
2021/08/14 08:39:38;;;;;;;0.10;0.00;;;20.00;99.90;;;;;;5116711;28;20052;-87
2021/08/14 08:42:07;;;;;;;0.22;0.20;;;20.10;99.90;;;;;;5116690;28;20043;-87
2021/08/14 08:44:35;;;;;;;0.10;0.10;;;20.30;99.90;;;;;;5150110;28;20499;-87
2021/08/14 08:47:06;;;;;;;0.10;0.10;;;20.30;99.90;;;;;;5149896;28;20028;-88
2021/08/14 08:49:33;;;;;;;0.00;0.00;;;20.40;99.90;;;;;;5150309;28;20043;-87
2021/08/14 08:52:00;;;;;;;0.10;0.10;;;20.50;99.90;;;;;;5149899;28;20035;-88
2021/08/14 08:54:27;;;;;;;0.30;0.17;;;20.40;99.90;;;;;;5116438;28;20065;-87
2021/08/14 08:56:54;;;;;;;0.65;0.30;;;20.40;99.90;;;;;;5131437;28;20036;-87
2021/08/14 08:59:21;;;;;;;0.13;0.13;;;20.40;99.90;;;;;;5115716;28;20046;-87
2021/08/14 09:01:48;;;;;;;0.43;0.20;;;20.40;99.90;;;;;;5126012;28;20169;-87
2021/08/14 09:04:47;;;;;;;0.38;0.32;;;20.60;99.90;;;;;;5105057;28;20033;-88
2021/08/14 09:07:28;;;;;;;0.00;0.00;;;21.10;99.90;;;;;;5112924;28;20040;-85
2021/08/14 09:09:59;;;;;;;0.43;0.30;;;21.40;99.90;;;;;;5145283;28;20093;-87
2021/08/14 09:12:35;;;;;;;0.22;0.20;;;21.50;99.90;;;;;;5111128;28;20458;-87
2021/08/14 09:15:16;;;;;;;0.95;0.40;;;21.70;99.90;;;;;;5147920;28;20036;-93
2021/08/14 09:17:45;;;;;;;1.92;0.38;;;21.80;99.90;;;;;;5133699;28;20035;-88
2021/08/14 09:20:19;;;;;;;0.10;0.10;;;21.90;99.90;;;;;;5149396;28;20165;-91
2021/08/14 09:23:01;;;;;;;0.17;0.15;;;21.80;99.90;;;;;;5134742;28;20134;-90
2021/08/14 09:25:49;;;;;;;0.30;0.20;;;21.70;99.90;;;;;;5132580;28;20518;-90
2021/08/14 09:28:30;;;;;;;0.65;0.40;;;21.70;99.90;;;;;;5149524;28;20107;-90
2021/08/14 09:31:58;;;;;;;1.17;0.50;;;21.70;99.90;;;;;;5132261;28;20407;-92
2021/08/14 09:34:28;;;;;;;0.00;0.00;;;21.80;99.90;;;;;;5054611;28;20064;-88
2021/08/14 09:37:42;;;;;;;0.10;0.10;;;21.70;99.90;;;;;;5053026;28;20044;-91
2021/08/14 09:44:58;;;;;;;0.00;0.00;;;21.80;99.90;;;;;;5087123;28;20098;-89
2021/08/14 09:47:33;;;;;;;1.08;0.38;;;21.80;99.90;;;;;;5125483;28;20048;-85
2021/08/14 09:50:00;;;;;;;0.60;0.40;;;21.70;99.90;;;;;;5114139;28;20126;-85
2021/08/14 09:52:27;;;;;;;1.00;0.20;;;21.60;99.90;;;;;;5127531;28;20298;-88
2021/08/14 09:54:55;;;;;;;0.93;0.50;;;21.50;99.90;;;;;;5131518;28;20134;-88
2021/08/14 09:57:25;;;;;;;0.10;0.10;;;21.30;99.90;;;;;;5148959;28;20110;-86
2021/08/14 09:59:56;;;;;;;4.40;0.40;;;21.40;99.90;;;;;;5147891;28;20114;-92
2021/08/14 10:02:26;;;;;;;0.10;0.10;;;21.40;99.90;;;;;;5147909;28;20476;-86
2021/08/14 10:04:56;;;;;;;0.52;0.30;;;21.30;99.90;;;;;;5147090;28;20488;-87
2021/08/14 10:07:26;;;;;;;0.08;0.08;;;21.20;99.90;;;;;;5148213;28;20114;-88
2021/08/14 10:09:53;;;;;;;0.65;0.28;;;21.20;99.90;;;;;;5130933;28;20506;-85
2021/08/14 10:12:25;;;;;;;0.13;0.13;;;21.30;99.90;;;;;;5130874;28;20056;-91
2021/08/14 10:14:52;;;;;;;0.30;0.30;;;21.30;99.90;;;;;;5114171;28;20054;-86
2021/08/14 10:17:23;;;;;;;0.20;0.20;;;21.60;99.90;;;;;;5114522;28;20047;-86
2021/08/14 10:19:52;;;;;;;0.15;0.13;;;21.70;99.90;;;;;;5120746;28;20042;-87
2021/08/14 10:22:23;;;;;;;0.10;0.10;;;21.90;99.90;;;;;;5147916;28;20103;-84
2021/08/14 10:24:55;;;;;;;3.03;0.50;;;22.00;99.90;;;;;;5149181;28;20035;-89
2021/08/14 10:27:24;;;;;;;0.57;0.40;;;22.00;99.90;;;;;;5131843;28;20038;-84
2021/08/14 10:30:00;;;;;;;0.20;0.17;;;22.00;99.90;;;;;;5114791;28;20747;-91
2021/08/14 10:32:30;;;;;;;0.52;0.38;;;22.10;99.90;;;;;;5131003;28;20507;-90
2021/08/14 10:35:21;;;;;;;0.75;0.28;;;22.00;99.90;;;;;;5130771;28;20093;-88
2021/08/14 10:37:50;;;;;;;0.15;0.15;;;21.90;99.90;;;;;;5098299;28;20044;-89
2021/08/14 10:40:19;;;;;;;0.65;0.43;;;21.90;99.90;;;;;;5127243;28;20044;-90
2021/08/14 10:42:49;;;;;;;0.73;0.30;;;21.90;99.90;;;;;;5131521;28;20499;-86
2021/08/14 10:45:42;;;;;;;0.73;0.30;;;22.00;99.90;;;;;;5130519;28;20047;-91
2021/08/14 10:48:10;;;;;;;0.45;0.35;;;22.00;99.90;;;;;;5095601;28;20051;-90
2021/08/14 10:50:37;;;;;;;1.08;0.47;;;22.30;99.90;;;;;;5148717;28;20044;-88
2021/08/14 10:53:22;;;;;;;0.20;0.20;;;22.50;99.90;;;;;;5146657;28;20035;-92
2021/08/14 10:55:56;;;;;;;0.10;0.10;;;22.70;99.90;;;;;;5099632;28;20040;-89
2021/08/14 10:58:23;;;;;;;0.35;0.17;;;22.80;99.90;;;;;;5130870;28;20127;-84
2021/08/14 11:00:52;;;;;;;0.15;0.15;;;22.90;99.90;;;;;;5147245;28;20069;-84
2021/08/14 11:03:29;;;;;;;0.32;0.22;;;22.70;99.90;;;;;;5130626;28;20040;-87
2021/08/14 11:06:23;;;;;;;0.45;0.32;;;22.50;99.90;;;;;;5131796;28;20391;-88
2021/08/14 11:08:50;;;;;;;0.70;0.43;;;22.30;99.90;;;;;;5149255;28;20035;-83
2021/08/14 11:11:36;;;;;;;0.50;0.30;;;22.40;99.90;;;;;;5112977;28;20476;-85
2021/08/14 11:14:08;;;;;;;7.18;0.50;;;22.40;99.90;;;;;;5129675;28;20039;-88
2021/08/14 11:17:00;;;;;;;0.08;0.08;;;22.40;99.90;;;;;;5130220;28;20047;-87
2021/08/14 11:19:50;;;;;;;1.33;0.68;;;22.40;99.90;;;;;;5129745;28;20143;-86
2021/08/14 11:22:31;;;;;;;0.10;0.10;;;22.50;99.90;;;;;;5131523;28;20031;-95
2021/08/14 11:25:01;;;;;;;0.10;0.10;;;22.50;99.90;;;;;;5125466;28;20040;-85
2021/08/14 11:27:33;;;;;;;0.32;0.32;;;22.40;99.90;;;;;;5151605;28;20028;-90
2021/08/14 11:30:04;;;;;;;0.10;0.10;;;22.40;99.90;;;;;;5151911;28;20063;-87
2021/08/14 11:32:32;;;;;;;0.28;0.22;;;22.40;99.90;;;;;;5150940;28;20036;-86
2021/08/14 11:35:00;;;;;;;0.32;0.30;;;22.30;99.90;;;;;;5131570;28;20085;-90
2021/08/14 11:37:27;;;;;;;0.45;0.20;;;22.40;99.90;;;;;;5149938;28;20035;-85
2021/08/14 11:40:04;;;;;;;1.48;0.80;;;22.60;99.90;;;;;;5133335;28;20039;-86
2021/08/14 11:42:32;;;;;;;4.00;0.43;;;22.50;99.90;;;;;;5151251;28;20046;-85
2021/08/14 11:45:00;;;;;;;5.82;0.45;;;22.40;99.90;;;;;;5149749;28;20122;-87
2021/08/14 11:47:36;;;;;;;1.60;0.80;;;22.60;99.90;;;;;;5150125;28;20038;-86
2021/08/14 11:50:06;;;;;;;0.45;0.30;;;22.90;99.90;;;;;;5150022;28;20035;-87
2021/08/14 11:52:34;;;;;;;1.90;0.65;;;22.90;99.90;;;;;;5150071;28;20070;-87
2021/08/14 11:55:11;;;;;;;1.48;0.68;;;22.90;99.90;;;;;;5149849;28;20464;-87
2021/08/14 11:57:40;;;;;;;0.55;0.45;;;22.60;99.90;;;;;;5133485;28;20027;-86
2021/08/14 12:00:22;;;;;;;1.02;0.63;;;22.60;99.90;;;;;;5132534;28;20069;-87
2021/08/14 12:03:06;;;;;;;2.67;0.50;;;22.50;99.90;;;;;;5150152;28;20437;-87
2021/08/14 12:05:43;;;;;;;0.70;0.35;;;22.40;99.90;;;;;;5149662;28;20050;-87
2021/08/14 12:08:29;;;;;;;0.65;0.40;;;22.30;99.90;;;;;;5149629;28;20032;-87
2021/08/14 12:11:00;;;;;;;0.32;0.30;;;22.10;99.90;;;;;;5150310;28;20383;-87
2021/08/14 12:13:27;;;;;;;0.85;0.50;;;21.80;99.90;;;;;;5149525;28;20051;-86
2021/08/14 12:16:09;;;;;;;5.13;1.55;;;21.70;99.90;;;;;;5133042;28;20122;-87
2021/08/14 12:18:37;;;;;;;0.28;0.25;;;21.60;99.90;;;;;;5149519;28;20059;-86
2021/08/14 12:21:05;;;;;;;1.48;0.40;;;21.70;99.90;;;;;;5148931;28;20035;-86
2021/08/14 12:23:34;;;;;;;3.50;0.50;;;21.90;99.90;;;;;;5132598;28;20042;-86
2021/08/14 12:26:10;;;;;;;1.05;0.60;;;22.30;99.90;;;;;;5128364;28;20067;-86
2021/08/14 12:28:39;;;;;;;0.77;0.52;;;22.50;99.90;;;;;;5128641;28;20074;-86
2021/08/14 12:31:20;;;;;;;1.45;0.65;;;22.50;99.90;;;;;;5128261;28;20040;-87
2021/08/14 12:33:49;;;;;;;2.78;0.70;;;22.50;99.90;;;;;;5129140;28;20047;-87
2021/08/14 12:36:31;;;;;;;0.28;0.28;;;22.30;99.90;;;;;;5128751;28;20112;-86
2021/08/14 12:38:58;;;;;;;0.17;0.17;;;22.50;99.90;;;;;;5114335;28;20044;-86
2021/08/14 12:41:24;;;;;;;0.17;0.17;;;22.60;99.90;;;;;;5117049;28;20051;-89
2021/08/14 12:43:52;;;;;;;1.38;0.47;;;22.90;99.90;;;;;;5095816;28;20106;-88
2021/08/14 12:46:24;;;;;;;0.20;0.20;;;23.20;99.90;;;;;;5111970;28;20085;-87
2021/08/14 12:49:19;;;;;;;0.20;0.20;;;23.30;99.90;;;;;;5112956;28;20032;-89
2021/08/14 12:52:07;;;;;;;0.35;0.30;;;23.50;99.90;;;;;;5129574;28;20097;-90
2021/08/14 12:54:38;;;;;;;0.85;0.22;;;23.70;99.90;;;;;;5138006;28;20498;-88
2021/08/14 12:57:07;;;;;;;1.70;0.60;;;23.70;99.90;;;;;;5148816;28;20053;-88
2021/08/14 12:59:35;;;;;;;0.28;0.15;;;23.40;99.90;;;;;;5145883;28;20058;-86
2021/08/14 13:02:07;;;;;;;0.60;0.30;;;23.30;99.90;;;;;;5111573;28;20044;-88
2021/08/14 13:04:35;;;;;;;1.73;0.73;;;23.00;99.90;;;;;;5110991;28;20032;-86